LTK weather

Bassel Al-Assad International Airport
Latakia, Latakia Governorate, Syria

Public forecast

Using degrees Celsius for public forecast. Weather courtesy of forecast.io.

METAR (pilot weather report)

Retrieved 2019/06/16 13:00 UTC (54 minutes ago):

OSLK 161300Z 22006KT 9999 FEW026 SCT030 29/22 Q1008

TAF (pilot weather forecast)

Forecast is more than 6 hours old.

Retrieved 2019/06/16 06:36 UTC (7 hours ago):

TAF TAF OSLK 160500Z 1606/1706 25008KT CAVOK TEMPO 1618/1703 14007KT CAVOK